KMSS/MSS METAR and TAF weather

Enter ICAO airport designator
Station Type Date Time Source
KMSS METAR 2022/06/30 23:53 UTC NOAA

KMSS 302353Z AUTO 10005KT 10SM CLR 21/14 A3005 RMK AO2 SLP177 T02110144 10244 20211 58011


Station Type Date Time Source
KMSS Decoded METAR 2022/06/30 23:53 UTC NOAA

MASSENA INTERNATIONAL -RICHARDS FLD, NY, United States (KMSS) 44-56N 074-51W 66M
Jun 30, 2022 - 07:53 PM EDT / 2022.06.30 2353 UTC
Wind: from the E (100 degrees) at 6 MPH (5 KT):0
Visibility: 10 mile(s):0
Sky conditions: clear
Temperature: 70.0 F (21.1 C)
Dew Point: 57.9 F (14.4 C)
Relative Humidity: 65%
Pressure (altimeter): 30.05 in. Hg (1017 hPa)
Pressure tendency: 0.03 inches (1.1 hPa) lower than three hours ago
ob: KMSS 302353Z AUTO 10005KT 10SM CLR 21/14 A3005 RMK AO2 SLP177 T02110144 10244 20211 58011
cycle: 0

Station Type Date Time Source
KMSS TAF 2022/06/30 18:27 UTC NOAA

TAF KMSS 301724Z 3018/0118 14007KT P6SM VCSH FEW050 SCT100 BKN180
FM302000 21005KT P6SM SCT050 SCT180
FM010100 21006KT P6SM SCT180 WS020/23035KT
FM011200 22008KT P6SM BKN200

Example: see airport list